createdAt,value
2022-10-08T00:00:31.787Z,99.37
2022-10-08T00:01:30.825Z,99.41
2022-10-08T00:02:30.765Z,99.51
2022-10-08T00:03:30.758Z,99.62
2022-10-08T00:04:30.811Z,99.21
2022-10-08T00:05:30.752Z,99.72
2022-10-08T00:06:30.777Z,99.51
2022-10-08T00:07:30.717Z,99.62
2022-10-08T00:08:30.723Z,99.51
2022-10-08T00:09:30.721Z,99.31
2022-10-08T00:10:31.295Z,99.51
2022-10-08T00:11:30.690Z,99.56
2022-10-08T00:12:30.681Z,99.31
2022-10-08T00:13:31.294Z,99.10
2022-10-08T00:14:30.682Z,99.25
2022-10-08T00:15:30.660Z,99.56
2022-10-08T00:16:30.725Z,99.93
2022-10-08T00:17:30.648Z,99.87
2022-10-08T00:18:30.651Z,99.97
2022-10-08T00:19:30.634Z,99.87
2022-10-08T00:20:30.626Z,99.99
2022-10-08T00:21:30.614Z,99.93
2022-10-08T00:22:30.614Z,99.77
2022-10-08T00:23:30.600Z,99.99
2022-10-08T00:24:30.597Z,99.99
2022-10-08T00:25:30.581Z,99.99
2022-10-08T00:26:30.573Z,99.99
2022-10-08T00:27:30.568Z,99.99
2022-10-08T00:28:30.693Z,99.99
2022-10-08T00:30:30.483Z,99.99
2022-10-08T00:31:30.553Z,99.99
2022-10-08T00:32:30.477Z,99.99
2022-10-08T00:33:30.462Z,99.77
2022-10-08T00:34:30.461Z,99.99
2022-10-08T00:35:30.442Z,99.91
2022-10-08T00:36:30.441Z,99.99
2022-10-08T00:37:30.431Z,99.99
2022-10-08T00:38:30.422Z,99.99
2022-10-08T00:39:30.417Z,99.99
2022-10-08T00:40:31.504Z,99.99
2022-10-08T00:41:31.490Z,99.99
2022-10-08T00:42:31.481Z,99.99
2022-10-08T00:43:31.476Z,99.99
2022-10-08T00:44:31.461Z,99.99
2022-10-08T00:45:31.518Z,99.99
2022-10-08T00:46:31.449Z,99.99
2022-10-08T00:47:31.447Z,99.46
2022-10-08T00:48:31.423Z,99.35
2022-10-08T00:49:32.422Z,99.99
2022-10-08T00:50:31.425Z,99.99
2022-10-08T00:51:31.407Z,99.99
2022-10-08T00:52:31.401Z,99.99
2022-10-08T00:53:31.391Z,99.99
2022-10-08T00:54:31.395Z,99.99
2022-10-08T00:55:31.388Z,99.91
2022-10-08T00:56:31.370Z,99.97
2022-10-08T00:57:31.368Z,99.99
2022-10-08T00:58:31.362Z,99.99
2022-10-08T00:59:31.346Z,99.99
2022-10-08T01:00:31.421Z,99.99
2022-10-08T01:01:31.330Z,99.99
2022-10-08T01:02:31.401Z,99.99
2022-10-08T01:03:31.307Z,99.99
2022-10-08T01:04:31.312Z,99.91
2022-10-08T01:05:31.308Z,99.99
2022-10-08T01:06:31.285Z,99.91
2022-10-08T01:07:31.288Z,99.99
2022-10-08T01:08:31.269Z,99.99
2022-10-08T01:09:31.265Z,99.99
2022-10-08T01:10:31.260Z,99.99
2022-10-08T01:11:31.243Z,99.99
2022-10-08T01:12:31.897Z,99.91
2022-10-08T01:13:31.222Z,99.99
2022-10-08T01:14:31.962Z,99.99
2022-10-08T01:15:31.229Z,99.99
2022-10-08T01:16:31.262Z,99.96
2022-10-08T01:17:31.195Z,99.99
2022-10-08T01:18:31.200Z,99.99
2022-10-08T01:19:31.276Z,99.99
2022-10-08T01:20:31.195Z,99.99
2022-10-08T01:21:31.157Z,99.99
2022-10-08T01:22:31.151Z,99.99
2022-10-08T01:23:31.152Z,99.99
2022-10-08T01:24:31.133Z,99.99
2022-10-08T01:25:31.122Z,99.99
2022-10-08T01:26:31.123Z,99.99
2022-10-08T01:27:31.106Z,99.99
2022-10-08T01:28:31.266Z,99.99
2022-10-08T01:29:31.964Z,99.99
2022-10-08T01:30:31.092Z,99.99
2022-10-08T01:31:31.197Z,99.99
2022-10-08T01:32:31.073Z,99.99
2022-10-08T01:33:31.063Z,99.99
2022-10-08T01:34:31.051Z,99.99
2022-10-08T01:35:31.043Z,99.99
2022-10-08T01:36:31.042Z,99.86
2022-10-08T01:37:31.029Z,99.99
2022-10-08T01:38:31.011Z,99.90
2022-10-08T01:39:31.008Z,99.90
2022-10-08T01:40:31.000Z,99.99
2022-10-08T01:41:31.027Z,99.99
2022-10-08T01:42:30.980Z,99.99
2022-10-08T01:43:30.968Z,99.99
2022-10-08T01:44:30.962Z,99.99
2022-10-08T01:45:31.068Z,99.99
2022-10-08T01:46:30.944Z,99.99
2022-10-08T01:47:30.965Z,99.99
2022-10-08T01:48:30.937Z,99.99
2022-10-08T01:49:30.930Z,99.99
2022-10-08T01:50:30.942Z,99.99
2022-10-08T01:51:30.925Z,99.99
2022-10-08T01:52:30.910Z,99.99
2022-10-08T01:53:30.898Z,99.99
2022-10-08T01:54:30.888Z,99.99
2022-10-08T01:55:30.956Z,99.99
2022-10-08T01:56:30.862Z,99.99
2022-10-08T01:57:30.863Z,99.99
2022-10-08T01:58:30.860Z,99.99
2022-10-08T01:59:30.845Z,99.99
2022-10-08T02:00:30.869Z,99.99
2022-10-08T02:01:30.873Z,99.99
2022-10-08T02:02:30.921Z,99.99
2022-10-08T02:03:30.806Z,99.99
2022-10-08T02:04:30.809Z,99.99
2022-10-08T02:05:31.361Z,99.99
2022-10-08T02:06:30.799Z,99.99
2022-10-08T02:07:30.775Z,99.99
2022-10-08T02:08:30.771Z,99.99
2022-10-08T02:09:30.765Z,99.99
2022-10-08T02:10:30.754Z,99.99
2022-10-08T02:11:30.754Z,99.97
2022-10-08T02:12:30.740Z,99.99
2022-10-08T02:13:30.724Z,99.77
2022-10-08T02:14:30.720Z,99.97
2022-10-08T02:15:30.739Z,99.87
2022-10-08T02:16:30.777Z,99.99
2022-10-08T02:17:31.702Z,99.77
2022-10-08T02:18:30.692Z,99.46
2022-10-08T02:19:30.687Z,99.15
2022-10-08T02:20:30.668Z,99.35
2022-10-08T02:21:30.663Z,98.69
2022-10-08T02:22:30.657Z,98.28
2022-10-08T02:23:30.643Z,98.59
2022-10-08T02:24:30.652Z,98.74
2022-10-08T02:25:34.423Z,98.94
2022-10-08T02:26:30.616Z,98.94
2022-10-08T02:27:30.611Z,99.00
2022-10-08T02:28:30.658Z,99.15
2022-10-08T02:29:30.591Z,99.21
2022-10-08T02:30:30.600Z,98.84
2022-10-08T02:31:30.609Z,98.94
2022-10-08T02:32:30.587Z,98.94
2022-10-08T02:33:30.577Z,98.90
2022-10-08T02:34:30.577Z,99.31
2022-10-08T02:35:30.555Z,99.66
2022-10-08T02:36:30.545Z,99.05
2022-10-08T02:37:30.533Z,99.46
2022-10-08T02:38:31.443Z,99.87
2022-10-08T02:39:30.528Z,99.66
2022-10-08T02:40:30.566Z,99.46
2022-10-08T02:41:30.511Z,99.66
2022-10-08T02:42:30.503Z,99.72
2022-10-08T02:43:30.496Z,99.72
2022-10-08T02:44:30.476Z,99.87
2022-10-08T02:45:30.514Z,99.99
2022-10-08T02:46:30.460Z,99.99
2022-10-08T02:47:30.455Z,99.97
2022-10-08T02:48:30.452Z,99.82
2022-10-08T02:49:30.443Z,99.99
2022-10-08T02:50:30.432Z,99.82
2022-10-08T02:51:30.431Z,99.77
2022-10-08T02:52:30.421Z,99.99
2022-10-08T02:53:30.408Z,99.99
2022-10-08T02:54:30.396Z,99.99
2022-10-08T02:55:30.394Z,99.99
2022-10-08T02:56:30.385Z,99.99
2022-10-08T02:58:36.353Z,99.99
2022-10-08T02:59:36.345Z,99.99
2022-10-08T03:00:36.359Z,99.99
2022-10-08T03:01:37.483Z,99.99
2022-10-08T03:02:37.495Z,99.99
2022-10-08T03:03:37.412Z,99.99
2022-10-08T03:04:37.405Z,99.99
2022-10-08T03:05:37.393Z,99.99
2022-10-08T03:06:37.388Z,99.99
2022-10-08T03:07:37.389Z,99.99
2022-10-08T03:08:37.385Z,99.99
2022-10-08T03:09:37.357Z,99.99
2022-10-08T03:10:37.344Z,99.99
2022-10-08T03:11:37.344Z,99.99
2022-10-08T03:12:37.333Z,99.99
2022-10-08T03:13:37.322Z,99.99
2022-10-08T03:14:37.315Z,99.99
2022-10-08T03:15:37.311Z,99.99
2022-10-08T03:16:38.147Z,99.99
2022-10-08T03:17:37.296Z,99.99
2022-10-08T03:18:37.298Z,99.99
2022-10-08T03:19:37.273Z,99.99
2022-10-08T03:20:37.268Z,99.99
2022-10-08T03:21:37.280Z,99.99
2022-10-08T03:22:37.250Z,99.99
2022-10-08T03:23:37.246Z,99.99
2022-10-08T03:24:37.233Z,99.99
2022-10-08T03:25:37.227Z,99.99
2022-10-08T03:26:37.226Z,99.99
2022-10-08T03:27:37.216Z,99.99
2022-10-08T03:28:37.245Z,99.99
2022-10-08T03:29:37.202Z,99.99
2022-10-08T03:30:37.230Z,99.99
2022-10-08T03:31:37.178Z,99.99
2022-10-08T03:32:37.168Z,99.99
2022-10-08T03:33:37.179Z,99.99
2022-10-08T03:34:37.160Z,99.99
2022-10-08T03:35:37.151Z,99.99
2022-10-08T03:36:37.136Z,99.99
2022-10-08T03:37:37.130Z,99.99
2022-10-08T03:38:37.129Z,99.99
2022-10-08T03:39:37.113Z,99.99
2022-10-08T03:40:37.104Z,99.99
2022-10-08T03:41:37.097Z,99.99
2022-10-08T03:42:37.108Z,99.99
2022-10-08T03:43:37.093Z,99.99
2022-10-08T03:44:37.081Z,99.99
2022-10-08T03:45:37.064Z,99.99
2022-10-08T03:46:37.097Z,99.99
2022-10-08T03:47:37.067Z,99.99
2022-10-08T03:48:37.061Z,99.99
2022-10-08T03:49:37.034Z,99.99
2022-10-08T03:50:37.028Z,99.99
2022-10-08T03:51:37.589Z,99.99
2022-10-08T03:52:37.011Z,99.99
2022-10-08T03:53:37.050Z,99.99
2022-10-08T03:54:36.992Z,99.99
2022-10-08T03:55:36.989Z,99.99
2022-10-08T03:56:36.984Z,99.99
2022-10-08T03:57:36.966Z,99.99
2022-10-08T03:58:36.969Z,99.99
2022-10-08T03:59:36.963Z,99.99
2022-10-08T04:00:36.950Z,99.99
2022-10-08T04:01:37.022Z,99.99
2022-10-08T04:02:36.967Z,99.99
2022-10-08T04:03:36.922Z,99.99
2022-10-08T04:04:36.922Z,99.99
2022-10-08T04:05:36.919Z,99.99
2022-10-08T04:06:36.898Z,99.99
2022-10-08T04:07:37.516Z,99.99
2022-10-08T04:08:36.877Z,99.99
2022-10-08T04:09:36.884Z,99.99
2022-10-08T04:10:36.868Z,99.99
2022-10-08T04:11:37.599Z,99.99
2022-10-08T04:12:36.877Z,99.99
2022-10-08T04:13:36.837Z,99.99
2022-10-08T04:14:36.839Z,99.99
2022-10-08T04:15:36.871Z,99.99
2022-10-08T04:16:36.817Z,99.99
2022-10-08T04:17:36.807Z,99.99
2022-10-08T04:18:37.594Z,99.99
2022-10-08T04:19:36.792Z,99.99
2022-10-08T04:20:36.782Z,99.99
2022-10-08T04:21:36.786Z,99.99
2022-10-08T04:22:36.773Z,99.99
2022-10-08T04:23:36.774Z,99.99
2022-10-08T04:24:36.760Z,99.99
2022-10-08T04:25:36.755Z,99.99
2022-10-08T04:26:36.735Z,99.99
2022-10-08T04:27:36.730Z,99.99
2022-10-08T04:28:38.909Z,99.99
2022-10-08T04:29:37.722Z,99.99
2022-10-08T04:30:36.706Z,99.99
2022-10-08T04:31:36.709Z,99.99
2022-10-08T04:32:36.687Z,99.99
2022-10-08T04:33:36.695Z,99.99
2022-10-08T04:34:36.687Z,99.99
2022-10-08T04:35:36.668Z,99.99
2022-10-08T04:36:36.675Z,99.99
2022-10-08T04:37:36.655Z,99.99
2022-10-08T04:38:36.650Z,99.99
2022-10-08T04:39:36.636Z,99.99
2022-10-08T04:40:36.628Z,99.99
2022-10-08T04:41:36.634Z,99.99
2022-10-08T04:42:36.609Z,99.99
2022-10-08T04:43:36.611Z,99.99
2022-10-08T04:44:36.596Z,99.99
2022-10-08T04:45:36.587Z,99.99
2022-10-08T04:46:36.713Z,99.99
2022-10-08T04:47:36.569Z,99.99
2022-10-08T04:48:36.562Z,99.99
2022-10-08T04:49:36.549Z,99.99
2022-10-08T04:50:36.549Z,99.99
2022-10-08T04:51:36.548Z,99.99
2022-10-08T04:52:36.548Z,99.99
2022-10-08T04:53:36.523Z,99.99
2022-10-08T04:54:36.530Z,99.99
2022-10-08T04:55:36.506Z,99.99
2022-10-08T04:56:36.510Z,99.99
2022-10-08T04:57:36.507Z,99.99
2022-10-08T04:58:36.494Z,99.99
2022-10-08T04:59:45.062Z,99.99
2022-10-08T05:00:37.476Z,99.99
2022-10-08T05:01:36.511Z,99.99
2022-10-08T05:02:36.572Z,99.99
2022-10-08T05:03:36.448Z,99.99
2022-10-08T05:04:36.435Z,99.99
2022-10-08T05:05:36.432Z,99.99
2022-10-08T05:06:36.424Z,99.99
2022-10-08T05:07:36.431Z,99.99
2022-10-08T05:08:36.408Z,99.99
2022-10-08T05:09:36.395Z,99.99
2022-10-08T05:10:36.397Z,99.99
2022-10-08T05:11:36.410Z,99.99
2022-10-08T05:12:36.382Z,99.99
2022-10-08T05:13:36.374Z,99.99
2022-10-08T05:14:36.354Z,99.99
2022-10-08T05:15:36.415Z,99.99
2022-10-08T05:16:36.343Z,99.99
2022-10-08T05:17:36.326Z,99.99
2022-10-08T05:18:36.325Z,99.99
2022-10-08T05:19:36.335Z,99.86
2022-10-08T05:20:36.311Z,98.93
2022-10-08T05:21:36.333Z,98.83
2022-10-08T05:22:36.291Z,98.93
2022-10-08T05:23:36.290Z,98.93
2022-10-08T05:24:36.282Z,99.08
2022-10-08T05:25:36.272Z,98.97
2022-10-08T05:26:56.961Z,99.18
2022-10-08T05:27:38.279Z,99.60
2022-10-08T05:28:36.371Z,98.93
2022-10-08T05:29:36.243Z,99.76
2022-10-08T05:30:36.236Z,99.90
2022-10-08T05:31:36.346Z,99.99
2022-10-08T05:32:37.034Z,99.99
2022-10-08T05:33:36.202Z,99.99
2022-10-08T05:34:36.199Z,99.86
2022-10-08T05:35:36.202Z,99.99
2022-10-08T05:36:36.172Z,99.99
2022-10-08T05:37:36.172Z,99.99
2022-10-08T05:38:36.159Z,99.99
2022-10-08T05:39:36.173Z,99.99
2022-10-08T05:40:36.147Z,99.99
2022-10-08T05:41:36.133Z,99.99
2022-10-08T05:42:36.126Z,99.99
2022-10-08T05:43:36.116Z,99.99
2022-10-08T05:44:37.714Z,99.99
2022-10-08T05:45:37.118Z,99.99
2022-10-08T05:46:36.127Z,99.99
2022-10-08T05:47:36.083Z,99.99
2022-10-08T05:48:36.073Z,99.99
2022-10-08T05:49:36.617Z,99.99
2022-10-08T05:50:36.073Z,99.99
2022-10-08T05:51:36.052Z,99.99
2022-10-08T05:52:36.047Z,99.99
2022-10-08T05:53:36.036Z,99.99
2022-10-08T05:54:36.040Z,99.99
2022-10-08T05:55:36.015Z,99.99
2022-10-08T05:56:36.032Z,99.99
2022-10-08T05:57:36.003Z,99.99
2022-10-08T05:58:35.992Z,99.99
2022-10-08T05:59:35.981Z,99.90
2022-10-08T06:00:35.976Z,99.99
2022-10-08T06:01:35.975Z,99.99
2022-10-08T06:02:36.045Z,99.99
2022-10-08T06:03:35.955Z,99.99
2022-10-08T06:04:35.970Z,99.99
2022-10-08T06:05:35.941Z,99.90
2022-10-08T06:06:35.944Z,99.99
2022-10-08T06:07:35.923Z,99.99
2022-10-08T06:08:35.909Z,99.80
2022-10-08T06:09:35.906Z,99.99
2022-10-08T06:10:35.895Z,99.99
2022-10-08T06:11:35.898Z,99.95
2022-10-08T06:12:35.879Z,99.99
2022-10-08T06:13:35.891Z,99.99
2022-10-08T06:14:35.865Z,99.99
2022-10-08T06:15:35.854Z,99.99
2022-10-08T06:16:35.932Z,99.99
2022-10-08T06:17:35.849Z,99.80
2022-10-08T06:18:35.835Z,99.80
2022-10-08T06:19:35.838Z,99.76
2022-10-08T06:20:35.810Z,99.24
2022-10-08T06:21:35.810Z,99.39
2022-10-08T06:22:35.794Z,99.49
2022-10-08T06:23:35.790Z,99.60
2022-10-08T06:24:36.505Z,99.29
2022-10-08T06:25:35.770Z,99.39
2022-10-08T06:26:36.416Z,99.39
2022-10-08T06:27:37.546Z,99.95
2022-10-08T06:28:35.807Z,99.99
2022-10-08T06:29:35.734Z,99.99
2022-10-08T06:30:35.722Z,99.99
2022-10-08T06:31:36.862Z,99.99
2022-10-08T06:32:35.715Z,99.99
2022-10-08T06:33:35.713Z,99.99
2022-10-08T06:34:35.695Z,99.99
2022-10-08T06:35:35.717Z,99.99
2022-10-08T06:36:35.681Z,99.99
2022-10-08T06:37:35.667Z,99.99
2022-10-08T06:38:35.728Z,99.99
2022-10-08T06:39:35.767Z,99.99
2022-10-08T06:40:35.651Z,99.80
2022-10-08T06:41:35.644Z,99.64
2022-10-08T06:42:35.631Z,99.90
2022-10-08T06:43:35.620Z,99.64
2022-10-08T06:44:35.610Z,99.29
2022-10-08T06:45:35.609Z,99.60
2022-10-08T06:46:35.676Z,99.60
2022-10-08T06:47:35.589Z,99.39
2022-10-08T06:48:35.577Z,99.39
2022-10-08T06:49:35.574Z,99.49
2022-10-08T06:50:35.575Z,99.34
2022-10-08T06:51:35.571Z,99.55
2022-10-08T06:52:35.584Z,98.93
2022-10-08T06:53:35.546Z,98.83
2022-10-08T06:54:35.531Z,98.32
2022-10-08T06:55:35.531Z,98.62
2022-10-08T06:56:35.533Z,98.83
2022-10-08T06:57:35.514Z,98.32
2022-10-08T06:58:35.504Z,97.86
2022-10-08T06:59:35.502Z,97.86
2022-10-08T07:00:35.597Z,97.60
2022-10-08T07:01:35.913Z,97.55
2022-10-08T07:02:35.576Z,97.75
2022-10-08T07:03:35.462Z,97.75
2022-10-08T07:04:35.453Z,96.93
2022-10-08T07:05:35.451Z,96.37
2022-10-08T07:06:35.446Z,96.21
2022-10-08T07:07:35.435Z,95.34
2022-10-08T07:08:35.414Z,94.83
2022-10-08T07:09:35.422Z,94.56
2022-10-08T07:10:35.398Z,94.87
2022-10-08T07:11:35.421Z,95.49
2022-10-08T07:12:35.383Z,96.05
2022-10-08T07:13:35.376Z,96.62
2022-10-08T07:14:35.370Z,95.90
2022-10-08T07:15:35.358Z,95.45
2022-10-08T07:16:35.403Z,95.55
2022-10-08T07:17:35.374Z,94.48
2022-10-08T07:18:35.334Z,94.95
2022-10-08T07:19:35.326Z,93.82
2022-10-08T07:20:35.328Z,93.92
2022-10-08T07:21:35.311Z,93.40
2022-10-08T07:22:35.312Z,92.44
2022-10-08T07:23:35.300Z,92.19
2022-10-08T07:24:35.288Z,91.88
2022-10-08T07:25:35.279Z,90.85
2022-10-08T07:26:35.276Z,91.02
2022-10-08T07:27:35.277Z,90.85
2022-10-08T07:28:35.272Z,90.91
2022-10-08T07:29:35.252Z,89.95
2022-10-08T07:30:35.250Z,90.05
2022-10-08T07:31:35.326Z,89.33
2022-10-08T07:32:36.061Z,89.78
2022-10-08T07:33:35.210Z,90.40
2022-10-08T07:34:35.214Z,91.12
2022-10-08T07:35:35.216Z,90.91
2022-10-08T07:36:35.195Z,91.02
2022-10-08T07:37:35.179Z,91.12
2022-10-08T07:38:35.179Z,91.33
2022-10-08T07:39:35.162Z,91.42
2022-10-08T07:40:35.159Z,91.28
2022-10-08T07:41:35.152Z,90.77
2022-10-08T07:42:35.144Z,91.14
2022-10-08T07:43:35.148Z,90.62
2022-10-08T07:44:35.123Z,90.42
2022-10-08T07:45:35.153Z,90.17
2022-10-08T07:46:35.132Z,89.42
2022-10-08T07:47:35.111Z,88.80
2022-10-08T07:48:35.097Z,88.24
2022-10-08T07:49:35.080Z,88.14
2022-10-08T07:50:36.079Z,87.59
2022-10-08T07:51:35.068Z,86.73
2022-10-08T07:52:35.058Z,87.04
2022-10-08T07:53:35.063Z,86.49
2022-10-08T07:54:35.049Z,86.38
2022-10-08T07:55:35.033Z,85.88
2022-10-08T07:56:35.033Z,85.02
2022-10-08T07:57:35.021Z,84.67
2022-10-08T07:58:35.011Z,84.26
2022-10-08T07:59:35.022Z,84.12
2022-10-08T08:00:35.043Z,83.71
2022-10-08T08:01:34.982Z,84.06
2022-10-08T08:02:35.023Z,83.92
2022-10-08T08:03:35.583Z,83.67
2022-10-08T08:04:34.964Z,83.16
2022-10-08T08:05:34.950Z,82.55
2022-10-08T08:06:34.945Z,82.55
2022-10-08T08:07:34.938Z,82.65
2022-10-08T08:08:34.937Z,82.71
2022-10-08T08:09:34.919Z,83.02
2022-10-08T08:10:34.913Z,83.84
2022-10-08T08:11:34.911Z,83.53
2022-10-08T08:12:34.917Z,83.53
2022-10-08T08:13:37.199Z,83.09
2022-10-08T08:14:37.589Z,83.09
2022-10-08T08:15:34.870Z,83.53
2022-10-08T08:16:34.953Z,83.59
2022-10-08T08:17:34.872Z,83.39
2022-10-08T08:18:34.842Z,83.09
2022-10-08T08:19:34.841Z,83.09
2022-10-08T08:20:34.824Z,83.09
2022-10-08T08:21:34.825Z,82.64
2022-10-08T08:22:34.815Z,82.94
2022-10-08T08:23:34.805Z,82.23
2022-10-08T08:24:36.576Z,81.88
2022-10-08T08:25:34.785Z,81.68
2022-10-08T08:26:34.773Z,81.17
2022-10-08T08:27:34.773Z,81.58
2022-10-08T08:28:35.712Z,81.17
2022-10-08T08:29:35.759Z,80.66
2022-10-08T08:30:34.747Z,80.22
2022-10-08T08:31:34.942Z,80.02
2022-10-08T08:32:34.738Z,79.57
2022-10-08T08:33:34.722Z,79.57
2022-10-08T08:34:34.721Z,79.16
2022-10-08T08:35:34.703Z,79.16
2022-10-08T08:36:34.700Z,78.76
2022-10-08T08:37:34.692Z,79.68
2022-10-08T08:38:34.677Z,80.29
2022-10-08T08:39:34.683Z,79.98
2022-10-08T08:40:34.673Z,79.37
2022-10-08T08:41:34.665Z,79.37
2022-10-08T08:42:34.651Z,78.82
2022-10-08T08:43:34.679Z,78.92
2022-10-08T08:44:34.651Z,78.62
2022-10-08T08:45:46.355Z,78.01
2022-10-08T08:46:35.646Z,77.77
2022-10-08T08:47:34.614Z,78.08
2022-10-08T08:48:34.604Z,78.08
2022-10-08T08:49:35.083Z,77.06
2022-10-08T08:50:35.584Z,76.65
2022-10-08T08:51:34.587Z,76.55
2022-10-08T08:52:34.576Z,76.99
2022-10-08T08:53:34.587Z,76.99
2022-10-08T08:54:34.567Z,77.09
2022-10-08T08:55:34.571Z,76.86
2022-10-08T08:56:34.544Z,76.65
2022-10-08T08:57:34.532Z,76.45
2022-10-08T08:58:34.543Z,76.65
2022-10-08T08:59:34.538Z,76.75
2022-10-08T09:00:34.510Z,76.65
2022-10-08T09:01:34.574Z,76.65
2022-10-08T09:02:35.162Z,76.65
2022-10-08T09:03:34.499Z,77.56
2022-10-08T09:04:34.498Z,76.95
2022-10-08T09:05:34.620Z,77.16
2022-10-08T09:06:34.467Z,77.36
2022-10-08T09:07:34.461Z,78.28
2022-10-08T09:08:34.468Z,78.08
2022-10-08T09:09:35.165Z,77.97
2022-10-08T09:10:34.437Z,77.67
2022-10-08T09:11:34.447Z,77.47
2022-10-08T09:12:34.427Z,77.67
2022-10-08T09:13:34.424Z,78.11
2022-10-08T09:14:34.403Z,78.08
2022-10-08T09:15:35.174Z,78.41
2022-10-08T09:16:35.133Z,79.13
2022-10-08T09:17:34.376Z,79.33
2022-10-08T09:18:34.376Z,80.69
2022-10-08T09:19:34.370Z,81.10
2022-10-08T09:20:39.328Z,81.30
2022-10-08T09:21:36.369Z,81.40
2022-10-08T09:22:34.349Z,82.26
2022-10-08T09:23:34.339Z,82.76
2022-10-08T09:24:34.327Z,83.68
2022-10-08T09:25:34.318Z,83.27
2022-10-08T09:26:34.313Z,82.87
2022-10-08T09:27:34.301Z,83.13
2022-10-08T09:28:34.354Z,83.23
2022-10-08T09:29:34.281Z,82.48
2022-10-08T09:30:34.372Z,82.32
2022-10-08T09:31:34.322Z,81.87
2022-10-08T09:32:34.268Z,81.67
2022-10-08T09:33:34.303Z,81.53
2022-10-08T09:34:34.271Z,81.02
2022-10-08T09:35:34.237Z,81.43
2022-10-08T09:36:34.232Z,81.43
2022-10-08T09:37:34.232Z,81.53
2022-10-08T09:38:34.223Z,81.23
2022-10-08T09:39:34.218Z,80.98
2022-10-08T09:40:34.202Z,81.39
2022-10-08T09:41:35.099Z,80.88
2022-10-08T09:42:34.176Z,80.24
2022-10-08T09:43:34.167Z,80.37
2022-10-08T09:44:34.174Z,80.54
2022-10-08T09:45:34.153Z,80.47
2022-10-08T09:46:34.147Z,80.24
2022-10-08T09:47:34.140Z,80.24
2022-10-08T09:48:34.130Z,79.52
2022-10-08T09:49:34.137Z,79.18
2022-10-08T09:50:34.119Z,78.53
2022-10-08T09:51:34.161Z,77.89
2022-10-08T09:52:34.102Z,77.89
2022-10-08T09:53:34.093Z,76.64
2022-10-08T09:54:34.085Z,75.82
2022-10-08T09:55:34.087Z,75.89
2022-10-08T09:56:34.071Z,76.09
2022-10-08T09:57:34.063Z,75.76
2022-10-08T09:58:34.066Z,75.08
2022-10-08T09:59:34.051Z,75.18
2022-10-08T10:00:34.040Z,74.61
2022-10-08T10:01:34.099Z,74.91
2022-10-08T10:02:34.022Z,74.91
2022-10-08T10:03:34.052Z,75.59
2022-10-08T10:04:34.011Z,75.08
2022-10-08T10:05:34.000Z,74.98
2022-10-08T10:06:33.997Z,74.84
2022-10-08T10:07:33.982Z,74.64
2022-10-08T10:08:34.693Z,74.77
2022-10-08T10:09:33.968Z,74.77
2022-10-08T10:10:33.966Z,74.54
2022-10-08T10:11:33.953Z,74.77
2022-10-08T10:12:33.944Z,74.57
2022-10-08T10:13:33.934Z,74.57
2022-10-08T10:14:33.933Z,74.98
2022-10-08T10:15:33.945Z,74.57
2022-10-08T10:16:34.036Z,74.51
2022-10-08T10:17:33.903Z,75.42
2022-10-08T10:18:33.887Z,74.81
2022-10-08T10:19:33.898Z,75.01
2022-10-08T10:20:33.869Z,75.62
2022-10-08T10:21:33.870Z,75.01
2022-10-08T10:22:33.855Z,74.61
2022-10-08T10:23:33.858Z,75.52
2022-10-08T10:24:34.710Z,76.33
2022-10-08T10:25:33.842Z,76.17
2022-10-08T10:26:33.824Z,76.57
2022-10-08T10:27:33.811Z,76.47
2022-10-08T10:28:33.895Z,76.17
2022-10-08T10:29:33.810Z,76.47
2022-10-08T10:30:33.832Z,76.47
2022-10-08T10:31:33.779Z,76.57
2022-10-08T10:32:33.794Z,76.57
2022-10-08T10:33:33.772Z,75.93
2022-10-08T10:34:33.764Z,75.82
2022-10-08T10:35:33.757Z,75.82
2022-10-08T10:36:33.740Z,75.93
2022-10-08T10:37:33.738Z,75.42
2022-10-08T10:38:33.718Z,75.22
2022-10-08T10:39:34.695Z,75.62
2022-10-08T10:40:33.718Z,75.62
2022-10-08T10:41:33.696Z,74.88
2022-10-08T10:42:33.701Z,75.59
2022-10-08T10:43:33.687Z,75.08
2022-10-08T10:44:33.691Z,74.64
2022-10-08T10:45:33.679Z,74.84
2022-10-08T10:46:33.715Z,74.57
2022-10-08T10:47:33.649Z,74.44
2022-10-08T10:48:33.644Z,73.63
2022-10-08T10:49:33.631Z,74.04
2022-10-08T10:50:33.632Z,74.04
2022-10-08T10:51:33.623Z,74.33
2022-10-08T10:52:33.627Z,74.13
2022-10-08T10:53:33.600Z,74.33
2022-10-08T10:54:33.602Z,73.80
2022-10-08T10:55:33.619Z,74.13
2022-10-08T10:56:33.573Z,73.53
2022-10-08T10:57:33.581Z,73.49
2022-10-08T10:58:33.564Z,73.49
2022-10-08T10:59:33.554Z,73.90
2022-10-08T11:00:33.580Z,74.51
2022-10-08T11:01:33.631Z,74.71
2022-10-08T11:02:33.562Z,74.91
2022-10-08T11:03:33.520Z,74.51
2022-10-08T11:04:33.513Z,74.20
2022-10-08T11:05:33.542Z,75.42
2022-10-08T11:06:33.498Z,75.45
2022-10-08T11:07:33.557Z,75.35
2022-10-08T11:08:34.122Z,76.26
2022-10-08T11:09:35.127Z,75.76
2022-10-08T11:10:33.466Z,75.45
2022-10-08T11:11:33.481Z,76.26
2022-10-08T11:12:33.471Z,76.06
2022-10-08T11:13:33.443Z,75.52
2022-10-08T11:14:33.439Z,74.91
2022-10-08T11:15:33.473Z,74.91
2022-10-08T11:16:33.418Z,74.81
2022-10-08T11:17:33.435Z,74.77
2022-10-08T11:18:33.411Z,74.74
2022-10-08T11:19:33.426Z,74.57
2022-10-08T11:20:33.389Z,74.57
2022-10-08T11:21:33.391Z,72.65
2022-10-08T11:22:33.378Z,72.28
2022-10-08T11:23:33.362Z,73.25
2022-10-08T11:24:33.357Z,73.36
2022-10-08T11:25:44.903Z,73.15
2022-10-08T11:26:35.342Z,72.99
2022-10-08T11:27:33.346Z,73.12
2022-10-08T11:28:33.418Z,73.22
2022-10-08T11:29:34.139Z,73.12
2022-10-08T11:30:33.308Z,72.31
2022-10-08T11:31:33.299Z,72.21
2022-10-08T11:32:33.292Z,71.70
2022-10-08T11:33:33.297Z,71.80
2022-10-08T11:34:33.274Z,71.80
2022-10-08T11:35:33.275Z,72.21
2022-10-08T11:36:33.389Z,71.50
2022-10-08T11:37:33.252Z,71.50
2022-10-08T11:38:33.252Z,71.50
2022-10-08T11:39:33.220Z,71.91
2022-10-08T11:40:34.236Z,71.80
2022-10-08T11:41:33.219Z,71.80
2022-10-08T11:42:37.912Z,71.40
2022-10-08T11:43:35.211Z,71.30
2022-10-08T11:44:33.211Z,71.37
2022-10-08T11:45:33.194Z,71.20
2022-10-08T11:46:33.237Z,71.20
2022-10-08T11:47:33.172Z,71.17
2022-10-08T11:48:33.173Z,71.00
2022-10-08T11:49:33.714Z,71.17
2022-10-08T11:50:33.143Z,70.46
2022-10-08T11:51:33.156Z,71.06
2022-10-08T11:52:33.140Z,71.17
2022-10-08T11:53:33.125Z,70.76
2022-10-08T11:54:33.146Z,70.53
2022-10-08T11:55:33.107Z,70.83
2022-10-08T11:56:33.105Z,70.42
2022-10-08T11:57:49.339Z,70.53
2022-10-08T11:58:35.091Z,70.12
2022-10-08T11:59:33.069Z,70.25
2022-10-08T12:00:33.066Z,71.20
2022-10-08T12:01:33.062Z,71.60
2022-10-08T12:02:33.151Z,71.09
2022-10-08T12:03:33.836Z,70.46
2022-10-08T12:04:33.045Z,70.69
2022-10-08T12:05:33.038Z,70.46
2022-10-08T12:06:33.018Z,70.15
2022-10-08T12:07:33.011Z,69.82
2022-10-08T12:08:32.999Z,69.42
2022-10-08T12:09:32.991Z,69.51
2022-10-08T12:10:33.001Z,68.71
2022-10-08T12:11:32.985Z,67.72
2022-10-08T12:12:32.975Z,66.78
2022-10-08T12:13:32.977Z,67.69
2022-10-08T12:14:32.955Z,67.19
2022-10-08T12:15:32.949Z,67.39
2022-10-08T12:16:32.974Z,67.52
2022-10-08T12:17:32.927Z,68.23
2022-10-08T12:18:32.923Z,66.72
2022-10-08T12:19:32.917Z,67.25
2022-10-08T12:20:32.896Z,67.15
2022-10-08T12:21:32.891Z,67.05
2022-10-08T12:22:32.883Z,66.64
2022-10-08T12:23:32.878Z,66.24
2022-10-08T12:24:32.877Z,66.01
2022-10-08T12:25:32.898Z,66.24
2022-10-08T12:26:32.855Z,66.01
2022-10-08T12:27:32.863Z,65.40
2022-10-08T12:28:32.912Z,64.49
2022-10-08T12:29:32.834Z,64.22
2022-10-08T12:30:32.879Z,63.28
2022-10-08T12:31:32.906Z,62.77
2022-10-08T12:32:32.808Z,62.37
2022-10-08T12:33:32.831Z,62.77
2022-10-08T12:34:32.789Z,62.16
2022-10-08T12:35:32.805Z,62.37
2022-10-08T12:36:32.770Z,62.07
2022-10-08T12:37:32.784Z,62.27
2022-10-08T12:38:32.765Z,62.87
2022-10-08T12:39:32.755Z,62.37
2022-10-08T12:40:32.750Z,63.38
2022-10-08T12:41:32.726Z,62.85
2022-10-08T12:42:33.660Z,62.54
2022-10-08T12:43:32.711Z,62.95
2022-10-08T12:44:32.710Z,62.44
2022-10-08T12:45:32.700Z,63.05
2022-10-08T12:46:32.855Z,62.54
2022-10-08T12:47:32.682Z,62.74
2022-10-08T12:48:32.680Z,62.07
2022-10-08T12:49:32.662Z,62.27
2022-10-08T12:50:32.662Z,62.37
2022-10-08T12:51:32.652Z,62.37
2022-10-08T12:52:32.633Z,62.47
2022-10-08T12:53:32.634Z,62.77
2022-10-08T12:54:32.623Z,62.27